Česky Dansk Deutsch English Español Suomi Français Magyar Italiano Nederlands norsk Polski Português svenska Türkçe

 

Het Weer

Kiruna Airport (Zweden)

15:50, 2 augustus 2016 (GMT)

NWNNE
WE
SWSSE
Home            
Kiruna Airport Gallivare Jokkmokk Narvik Iii Enontekio Bardufoss Evenes Kautokeino Kittila Pello Tromso / Langnes Vidsel Sorkjosen Storkmarknes / Skagen Andoya Svolvaer / Helle Bodo Vi Lulea / Kallax Alta Lufthavn Sodankyla Rovaniemi Leknes Kemi

Om een weerknop op uw website of weblog te plaatsen, copieer onderstaande code en plak die in uw pagina. In het eerste vakje staat HTML-code, in het tweede vakje UBB-code.


Add to Google

Details

Wind speed:2 bf, 5 kn, 2.6 m/s, 5.8 miles/h, 9.3 km/h
Wind direction:N, 360° - ENE, 060°
Visibility:Greater than 10000 m, 10 km, 32800 ft, 6.2 miles
Clouds:Aufgelockert bewölkt at 1500 ft, 457 m
Temperature:14°C, 57°F
Dew-point:11°C, 52°F
Atmospheric pressure:1004 hPa, 753.1 mmHg, 29.65 inHg, 0.991 atm
Relative humidity:82.1 %
METAR:ESNQ 021550Z 03005KT 360V060 9999 SCT015TCU 14/11 Q1004

Snelkoppelingen

Actuele weersinformatie van de hele wereld. Voeg locaties toe met het plus (+) symbool. Deze snelkoppelingen kunnen worden toegevoegd aan Google.

Lid van de Technetium groep

website free tracking
StatCounter NetStat W3C Validator

14-04-2021 10:09:55
astro.technetium.be money.technetium.be phote.technetium.be tafeltennistafel.technetium.be www.ligfiets.net